createdAt,value
2018-05-03T00:01:40.748Z,13.60
2018-05-03T00:04:09.890Z,13.54
2018-05-03T00:06:38.014Z,13.54
2018-05-03T00:09:06.152Z,13.54
2018-05-03T00:11:36.787Z,13.53
2018-05-03T00:14:04.757Z,13.54
2018-05-03T00:16:35.700Z,13.53
2018-05-03T00:19:05.532Z,13.53
2018-05-03T00:21:34.056Z,13.52
2018-05-03T00:24:02.163Z,13.50
2018-05-03T00:26:30.217Z,13.52
2018-05-03T00:28:58.220Z,13.54
2018-05-03T00:31:28.870Z,13.56
2018-05-03T00:33:56.938Z,13.54
2018-05-03T00:36:24.906Z,13.50
2018-05-03T00:38:52.986Z,13.45
2018-05-03T00:41:20.944Z,13.44
2018-05-03T00:43:52.884Z,13.42
2018-05-03T00:46:21.810Z,13.42
2018-05-03T00:48:50.504Z,13.40
2018-05-03T00:51:18.479Z,13.38
2018-05-03T00:53:46.449Z,13.32
2018-05-03T00:56:14.417Z,13.27
2018-05-03T00:58:45.269Z,13.24
2018-05-03T01:01:13.033Z,13.22
2018-05-03T01:03:40.941Z,13.22
2018-05-03T01:06:11.349Z,13.18
2018-05-03T01:08:39.300Z,13.12
2018-05-03T01:11:08.801Z,13.07
2018-05-03T01:13:36.794Z,13.05
2018-05-03T01:16:04.751Z,13.04
2018-05-03T01:18:32.942Z,13.02
2018-05-03T01:21:00.797Z,13.02
2018-05-03T01:23:28.874Z,13.03
2018-05-03T01:25:56.844Z,13.06
2018-05-03T01:28:24.805Z,13.07
2018-05-03T01:30:52.903Z,13.04
2018-05-03T01:33:20.883Z,13.00
2018-05-03T01:36:01.659Z,13.00
2018-05-03T01:38:29.720Z,13.01
2018-05-03T01:40:58.276Z,12.98
2018-05-03T01:43:26.575Z,12.96
2018-05-03T01:45:54.651Z,12.98
2018-05-03T01:48:22.500Z,13.00
2018-05-03T01:50:50.471Z,12.98
2018-05-03T01:53:18.232Z,12.99
2018-05-03T01:55:47.842Z,13.01
2018-05-03T01:58:15.845Z,12.98
2018-05-03T02:00:43.832Z,13.00
2018-05-03T02:03:12.001Z,13.03
2018-05-03T02:05:39.965Z,13.06
2018-05-03T02:08:09.022Z,13.05
2018-05-03T02:10:37.027Z,13.05
2018-05-03T02:13:04.907Z,13.02
2018-05-03T02:15:32.890Z,12.95
2018-05-03T02:18:00.970Z,12.86
2018-05-03T02:20:29.005Z,12.79
2018-05-03T02:22:57.126Z,12.75
2018-05-03T02:25:26.625Z,12.73
2018-05-03T02:27:54.435Z,12.72
2018-05-03T02:30:22.293Z,12.73
2018-05-03T02:32:53.088Z,12.73
2018-05-03T02:35:22.205Z,12.71
2018-05-03T02:37:50.246Z,12.70
2018-05-03T02:40:18.235Z,12.71
2018-05-03T02:42:47.244Z,12.72
2018-05-03T02:45:15.006Z,12.72
2018-05-03T02:47:44.010Z,12.76
2018-05-03T02:50:12.080Z,12.77
2018-05-03T02:52:40.146Z,12.78
2018-05-03T02:55:09.157Z,12.78
2018-05-03T02:57:54.516Z,12.77
2018-05-03T03:00:41.060Z,12.77
2018-05-03T03:03:26.595Z,12.74
2018-05-03T03:06:09.311Z,12.68
2018-05-03T03:22:47.262Z,12.57
2018-05-03T03:29:06.789Z,12.56
2018-05-03T03:31:52.062Z,12.50
2018-05-03T03:34:21.994Z,12.45
2018-05-03T03:37:26.751Z,12.44
2018-05-03T03:43:21.797Z,12.42
2018-05-03T03:45:53.177Z,12.41
2018-05-03T03:48:21.323Z,12.42
2018-05-03T03:50:49.194Z,12.42
2018-05-03T03:53:18.279Z,12.46
2018-05-03T03:55:46.368Z,12.47
2018-05-03T03:58:14.342Z,12.49
2018-05-03T04:00:42.307Z,12.54
2018-05-03T04:03:10.293Z,12.56
2018-05-03T04:05:38.360Z,12.54
2018-05-03T04:08:05.989Z,12.55
2018-05-03T04:10:34.098Z,12.57
2018-05-03T04:13:02.081Z,12.60
2018-05-03T04:15:31.938Z,12.61
2018-05-03T04:18:11.532Z,12.61
2018-05-03T04:21:03.138Z,12.64
2018-05-03T04:23:43.114Z,12.66
2018-05-03T04:26:12.039Z,12.69
2018-05-03T04:28:40.062Z,12.71
2018-05-03T04:31:08.705Z,12.76
2018-05-03T04:33:36.810Z,12.79
2018-05-03T04:36:04.902Z,12.84
2018-05-03T04:38:32.865Z,12.91
2018-05-03T04:41:00.954Z,12.95
2018-05-03T04:43:28.913Z,13.01
2018-05-03T04:45:57.486Z,13.06
2018-05-03T04:48:25.583Z,13.08
2018-05-03T04:50:53.651Z,13.06
2018-05-03T04:53:21.634Z,13.13
2018-05-03T04:55:53.098Z,13.23
2018-05-03T04:58:21.020Z,13.34
2018-05-03T05:00:49.029Z,13.43
2018-05-03T05:03:16.990Z,13.50
2018-05-03T05:05:45.072Z,13.51
2018-05-03T05:08:13.086Z,13.51
2018-05-03T05:10:41.216Z,13.57
2018-05-03T05:13:09.308Z,13.59
2018-05-03T05:15:38.090Z,13.65
2018-05-03T05:18:05.672Z,13.71
2018-05-03T05:20:33.626Z,13.72
2018-05-03T05:23:01.716Z,13.71
2018-05-03T05:25:30.673Z,13.70
2018-05-03T05:27:58.784Z,13.72
2018-05-03T05:30:26.763Z,13.76
2018-05-03T05:32:54.834Z,13.77
2018-05-03T05:35:22.810Z,13.84
2018-05-03T05:37:50.758Z,13.93
2018-05-03T05:40:18.846Z,14.05
2018-05-03T05:42:47.031Z,14.18
2018-05-03T05:45:14.827Z,14.28
2018-05-03T05:47:43.896Z,14.36
2018-05-03T05:50:11.984Z,14.44
2018-05-03T05:52:46.493Z,14.47
2018-05-03T05:55:14.660Z,14.55
2018-05-03T05:57:42.735Z,14.56
2018-05-03T06:00:10.722Z,14.67
2018-05-03T06:02:38.610Z,14.74
2018-05-03T06:05:06.668Z,14.82
2018-05-03T06:07:34.740Z,14.90
2018-05-03T06:10:05.584Z,14.93
2018-05-03T06:12:33.551Z,14.96
2018-05-03T06:15:01.613Z,14.97
2018-05-03T06:17:30.259Z,15.03
2018-05-03T06:19:58.404Z,15.12
2018-05-03T06:22:29.384Z,15.14
2018-05-03T06:24:57.614Z,15.22
2018-05-03T06:27:25.588Z,15.32
2018-05-03T06:29:53.655Z,15.40
2018-05-03T06:32:22.153Z,15.39
2018-05-03T06:34:50.235Z,15.39
2018-05-03T06:37:18.389Z,15.45
2018-05-03T06:39:51.674Z,15.48
2018-05-03T06:42:19.693Z,15.43
2018-05-03T06:44:50.509Z,15.38
2018-05-03T06:47:18.581Z,15.36
2018-05-03T06:49:46.537Z,15.40
2018-05-03T06:52:15.564Z,15.43
2018-05-03T06:54:44.713Z,15.55
2018-05-03T06:57:12.709Z,15.59
2018-05-03T06:59:44.293Z,15.64
2018-05-03T07:02:12.767Z,15.69
2018-05-03T07:04:40.837Z,15.71
2018-05-03T07:07:08.381Z,15.74
2018-05-03T07:09:36.590Z,15.79
2018-05-03T07:12:09.165Z,15.84
2018-05-03T07:14:38.564Z,15.89
2018-05-03T07:17:06.536Z,15.98
2018-05-03T07:19:35.527Z,16.06
2018-05-03T07:22:05.141Z,16.09
2018-05-03T07:24:33.075Z,16.20
2018-05-03T07:27:03.864Z,16.25
2018-05-03T07:29:32.937Z,16.18
2018-05-03T07:32:01.002Z,16.18
2018-05-03T07:34:29.013Z,16.25
2018-05-03T07:36:59.045Z,16.34
2018-05-03T07:39:26.965Z,16.37
2018-05-03T07:41:54.867Z,16.26
2018-05-03T07:44:22.860Z,16.37
2018-05-03T07:46:54.833Z,16.59
2018-05-03T07:49:23.872Z,16.83
2018-05-03T07:51:54.708Z,17.03
2018-05-03T07:54:24.048Z,17.12
2018-05-03T07:56:52.179Z,17.12
2018-05-03T07:59:25.331Z,17.24
2018-05-03T08:01:54.669Z,17.29
2018-05-03T08:04:23.726Z,17.41
2018-05-03T08:06:51.705Z,17.60
2018-05-03T08:09:19.786Z,17.68
2018-05-03T08:11:51.790Z,17.79
2018-05-03T08:14:19.755Z,17.92
2018-05-03T08:16:47.800Z,17.90
2018-05-03T08:19:15.858Z,17.99
2018-05-03T08:21:45.963Z,17.95
2018-05-03T08:24:13.959Z,17.96
2018-05-03T08:26:42.016Z,18.03
2018-05-03T08:29:10.039Z,18.03
2018-05-03T08:31:38.079Z,17.99
2018-05-03T08:34:06.090Z,17.90
2018-05-03T08:36:36.910Z,17.93
2018-05-03T08:39:06.362Z,18.06
2018-05-03T08:41:35.585Z,18.00
2018-05-03T08:44:06.228Z,17.75
2018-05-03T08:46:34.991Z,17.71
2018-05-03T08:49:03.001Z,17.88
2018-05-03T08:51:32.008Z,18.01
2018-05-03T08:53:59.980Z,17.98
2018-05-03T08:56:28.270Z,18.07
2018-05-03T08:58:57.349Z,18.19
2018-05-03T09:01:27.152Z,18.28
2018-05-03T09:03:54.685Z,18.25
2018-05-03T09:06:22.711Z,18.24
2018-05-03T09:08:50.792Z,18.27
2018-05-03T09:11:18.972Z,18.37
2018-05-03T09:13:47.034Z,18.47
2018-05-03T09:16:14.598Z,18.55
2018-05-03T09:18:43.289Z,18.61
2018-05-03T09:21:11.365Z,18.61
2018-05-03T09:23:39.441Z,18.66
2018-05-03T09:26:07.407Z,18.74
2018-05-03T09:28:35.275Z,18.86
2018-05-03T09:31:06.027Z,18.86
2018-05-03T09:33:34.072Z,18.90
2018-05-03T09:36:03.118Z,18.98
2018-05-03T09:38:31.063Z,19.03
2018-05-03T09:40:59.151Z,19.10
2018-05-03T09:43:28.611Z,19.21
2018-05-03T09:45:56.634Z,19.27
2018-05-03T09:48:24.611Z,19.19
2018-05-03T09:50:55.452Z,19.13
2018-05-03T09:53:23.524Z,19.24
2018-05-03T09:55:51.613Z,19.37
2018-05-03T09:58:19.666Z,19.35
2018-05-03T10:00:47.650Z,19.46
2018-05-03T10:03:16.425Z,19.39
2018-05-03T10:05:44.304Z,19.42
2018-05-03T10:08:13.077Z,19.43
2018-05-03T10:10:41.166Z,19.54
2018-05-03T10:13:09.429Z,19.63
2018-05-03T10:15:37.308Z,19.73
2018-05-03T10:18:05.273Z,19.87
2018-05-03T10:20:33.990Z,19.92
2018-05-03T10:23:03.593Z,19.96
2018-05-03T10:25:31.579Z,19.98
2018-05-03T10:27:59.440Z,19.86
2018-05-03T10:30:27.567Z,19.82
2018-05-03T10:32:55.604Z,19.89
2018-05-03T10:35:23.945Z,19.93
2018-05-03T10:37:53.085Z,20.04
2018-05-03T10:40:23.828Z,20.07
2018-05-03T10:42:51.769Z,20.15
2018-05-03T10:45:19.971Z,20.23
2018-05-03T10:47:47.929Z,20.45
2018-05-03T10:50:16.027Z,20.58
2018-05-03T10:52:43.986Z,20.69
2018-05-03T10:55:12.068Z,20.80
2018-05-03T10:57:42.586Z,20.90
2018-05-03T11:00:10.789Z,20.88
2018-05-03T11:02:38.869Z,20.75
2018-05-03T11:05:06.823Z,20.82
2018-05-03T11:07:37.561Z,20.98
2018-05-03T11:10:05.530Z,21.26
2018-05-03T11:12:33.498Z,21.47
2018-05-03T11:15:01.481Z,21.65
2018-05-03T11:17:29.452Z,21.69
2018-05-03T11:19:57.445Z,21.67
2018-05-03T11:22:25.498Z,21.72
2018-05-03T11:24:53.572Z,21.71
2018-05-03T11:27:22.572Z,21.70
2018-05-03T11:29:50.617Z,21.72
2018-05-03T11:32:18.731Z,21.80
2018-05-03T11:34:46.497Z,21.57
2018-05-03T11:37:14.664Z,21.53
2018-05-03T11:39:42.640Z,21.54
2018-05-03T11:42:10.622Z,21.53
2018-05-03T11:44:38.601Z,21.65
2018-05-03T11:47:06.211Z,21.47
2018-05-03T11:49:34.317Z,21.51
2018-05-03T11:52:03.029Z,21.62
2018-05-03T11:54:31.149Z,21.69
2018-05-03T11:57:01.226Z,21.69
2018-05-03T11:59:29.280Z,21.61
2018-05-03T12:01:59.948Z,21.56
2018-05-03T12:04:27.923Z,21.57
2018-05-03T12:06:55.888Z,21.52
2018-05-03T12:09:24.073Z,21.13
2018-05-03T12:11:52.154Z,21.07
2018-05-03T12:14:20.216Z,21.00
2018-05-03T12:16:48.168Z,20.87
2018-05-03T12:19:16.173Z,20.63
2018-05-03T12:21:44.099Z,20.55
2018-05-03T12:24:12.220Z,20.45
2018-05-03T12:26:40.699Z,20.34
2018-05-03T12:29:09.089Z,20.31
2018-05-03T12:31:37.155Z,20.27
2018-05-03T12:34:05.243Z,20.15
2018-05-03T12:36:34.967Z,20.10
2018-05-03T12:39:03.023Z,20.12
2018-05-03T12:41:30.992Z,20.10
2018-05-03T12:43:59.078Z,20.20
2018-05-03T12:46:27.254Z,20.26
2018-05-03T12:48:57.830Z,20.25
2018-05-03T12:51:25.882Z,20.19
2018-05-03T12:53:54.046Z,20.21
2018-05-03T12:56:22.012Z,20.24
2018-05-03T12:58:50.091Z,20.25
2018-05-03T13:01:19.816Z,20.29
2018-05-03T13:03:47.788Z,20.30
2018-05-03T13:06:15.958Z,20.25
2018-05-03T13:08:44.149Z,20.15
2018-05-03T13:11:12.170Z,20.11
2018-05-03T13:13:41.831Z,20.14
2018-05-03T13:16:10.103Z,20.22
2018-05-03T13:18:38.038Z,20.22
2018-05-03T13:21:06.159Z,20.27
2018-05-03T13:23:35.254Z,20.23
2018-05-03T13:26:03.327Z,20.24
2018-05-03T13:28:31.355Z,20.32
2018-05-03T13:31:00.518Z,20.30
2018-05-03T13:33:31.243Z,20.38
2018-05-03T13:35:59.202Z,20.47
2018-05-03T13:38:27.109Z,20.61
2018-05-03T13:40:57.723Z,20.65
2018-05-03T13:43:30.073Z,20.69
2018-05-03T13:46:00.820Z,20.75
2018-05-03T13:48:28.806Z,20.80
2018-05-03T13:50:56.882Z,20.85
2018-05-03T13:53:25.606Z,20.79
2018-05-03T13:55:53.533Z,20.73
2018-05-03T13:58:21.375Z,20.65
2018-05-03T14:00:49.177Z,20.61
2018-05-03T14:03:16.994Z,20.61
2018-05-03T14:05:45.027Z,20.51
2018-05-03T14:08:12.877Z,20.45
2018-05-03T14:10:41.663Z,20.37
2018-05-03T14:13:09.432Z,20.35
2018-05-03T14:15:37.355Z,20.34
2018-05-03T14:18:05.202Z,20.37
2018-05-03T14:20:33.024Z,20.33
2018-05-03T14:23:00.895Z,20.31
2018-05-03T14:25:28.725Z,20.32
2018-05-03T14:27:56.471Z,20.32
2018-05-03T14:30:24.277Z,20.39
2018-05-03T14:32:52.153Z,20.58
2018-05-03T14:35:19.653Z,20.71
2018-05-03T14:37:47.414Z,20.68
2018-05-03T14:40:15.141Z,20.63
2018-05-03T14:42:42.641Z,20.60
2018-05-03T14:45:10.499Z,20.60
2018-05-03T14:47:38.339Z,20.40
2018-05-03T14:50:06.190Z,20.37
2018-05-03T14:52:34.040Z,20.41
2018-05-03T14:55:01.874Z,20.43
2018-05-03T14:57:29.536Z,20.43
2018-05-03T14:59:57.429Z,20.42
2018-05-03T15:02:25.301Z,20.41
2018-05-03T15:04:52.889Z,20.40
2018-05-03T15:07:20.627Z,20.32
2018-05-03T15:09:48.431Z,20.22
2018-05-03T15:12:16.112Z,20.21
2018-05-03T15:14:43.975Z,20.20
2018-05-03T15:17:11.732Z,20.19
2018-05-03T15:19:39.515Z,20.22
2018-05-03T15:22:07.319Z,20.24
2018-05-03T15:24:35.073Z,20.27
2018-05-03T15:27:02.886Z,20.28
2018-05-03T15:29:30.773Z,20.32
2018-05-03T15:31:58.613Z,20.28
2018-05-03T15:34:26.485Z,20.27
2018-05-03T15:36:54.312Z,20.21
2018-05-03T15:39:22.024Z,20.06
2018-05-03T15:41:49.903Z,19.99
2018-05-03T15:44:17.790Z,19.98
2018-05-03T15:46:45.630Z,19.89
2018-05-03T15:49:13.514Z,19.76
2018-05-03T15:51:41.283Z,19.70
2018-05-03T15:54:09.088Z,19.69
2018-05-03T15:56:36.912Z,19.71
2018-05-03T15:59:04.560Z,19.73
2018-05-03T16:01:32.471Z,19.66
2018-05-03T16:04:00.333Z,19.60
2018-05-03T16:06:28.185Z,19.58
2018-05-03T16:08:56.028Z,19.54
2018-05-03T16:11:23.699Z,19.55
2018-05-03T16:13:51.535Z,19.55
2018-05-03T16:16:19.346Z,19.53
2018-05-03T16:18:47.102Z,19.40
2018-05-03T16:21:14.913Z,19.38
2018-05-03T16:23:42.725Z,19.35
2018-05-03T16:26:10.525Z,19.33
2018-05-03T16:28:38.358Z,19.31
2018-05-03T16:31:06.168Z,19.25
2018-05-03T16:33:33.981Z,19.20
2018-05-03T16:36:01.642Z,19.18
2018-05-03T16:38:29.461Z,19.16
2018-05-03T16:40:57.247Z,19.13
2018-05-03T16:43:25.096Z,19.11
2018-05-03T16:45:52.920Z,19.07
2018-05-03T16:48:20.942Z,19.05
2018-05-03T16:50:48.878Z,19.08
2018-05-03T16:53:16.657Z,19.09
2018-05-03T16:55:44.494Z,19.06
2018-05-03T16:58:12.329Z,18.99
2018-05-03T17:00:40.070Z,18.98
2018-05-03T17:03:07.913Z,18.97
2018-05-03T17:05:35.708Z,18.94
2018-05-03T17:08:03.507Z,18.88
2018-05-03T17:10:31.325Z,18.82
2018-05-03T17:12:59.131Z,18.82
2018-05-03T17:15:26.955Z,18.82
2018-05-03T17:17:54.789Z,18.84
2018-05-03T17:20:22.606Z,18.85
2018-05-03T17:22:50.440Z,18.85
2018-05-03T17:25:18.240Z,18.82
2018-05-03T17:27:46.067Z,18.79
2018-05-03T17:30:13.804Z,18.76
2018-05-03T17:32:41.617Z,18.71
2018-05-03T17:35:09.465Z,18.66
2018-05-03T17:37:37.237Z,18.61
2018-05-03T17:40:05.383Z,18.52
2018-05-03T17:42:33.170Z,18.46
2018-05-03T17:45:01.072Z,18.40
2018-05-03T17:47:28.817Z,18.34
2018-05-03T17:49:56.689Z,18.31
2018-05-03T17:52:24.530Z,18.27
2018-05-03T17:54:52.340Z,18.22
2018-05-03T17:57:20.141Z,18.17
2018-05-03T17:59:47.985Z,18.16
2018-05-03T18:02:15.907Z,18.08
2018-05-03T18:04:43.581Z,18.00
2018-05-03T18:07:11.393Z,18.00
2018-05-03T18:09:39.196Z,17.93
2018-05-03T18:12:07.057Z,17.86
2018-05-03T18:14:34.932Z,17.83
2018-05-03T18:17:02.748Z,17.79
2018-05-03T18:19:30.576Z,17.74
2018-05-03T18:21:58.458Z,17.66
2018-05-03T18:24:26.218Z,17.61
2018-05-03T18:26:54.834Z,17.58
2018-05-03T18:29:22.771Z,17.53
2018-05-03T18:31:50.634Z,17.47
2018-05-03T18:34:18.497Z,17.44
2018-05-03T18:36:46.390Z,17.41
2018-05-03T18:39:14.217Z,17.38
2018-05-03T18:41:42.148Z,17.32
2018-05-03T18:44:11.034Z,17.28
2018-05-03T18:46:38.947Z,17.28
2018-05-03T18:49:06.729Z,17.24
2018-05-03T18:51:34.551Z,17.20
2018-05-03T18:54:02.098Z,17.18
2018-05-03T18:56:29.632Z,17.12
2018-05-03T18:58:57.466Z,17.09
2018-05-03T19:01:25.014Z,17.06
2018-05-03T19:03:52.689Z,17.03
2018-05-03T19:06:20.460Z,17.00
2018-05-03T19:08:48.022Z,16.98
2018-05-03T19:11:15.514Z,16.96
2018-05-03T19:13:43.043Z,16.92
2018-05-03T19:16:10.618Z,16.89
2018-05-03T19:18:38.496Z,16.85
2018-05-03T19:21:06.391Z,16.83
2018-05-03T19:23:34.277Z,16.83
2018-05-03T19:26:02.115Z,16.82
2018-05-03T19:28:29.932Z,16.81
2018-05-03T19:30:57.772Z,16.80
2018-05-03T19:33:25.651Z,16.79
2018-05-03T19:35:53.451Z,16.78
2018-05-03T19:38:21.342Z,16.78
2018-05-03T19:40:49.123Z,16.77
2018-05-03T19:43:16.903Z,16.76
2018-05-03T19:45:44.810Z,16.75
2018-05-03T19:48:12.629Z,16.72
2018-05-03T19:50:40.469Z,16.72
2018-05-03T19:53:09.704Z,16.68
2018-05-03T19:55:37.578Z,16.66
2018-05-03T19:58:05.382Z,16.63
2018-05-03T20:00:33.160Z,16.61
2018-05-03T20:03:01.645Z,16.59
2018-05-03T20:05:29.543Z,16.56
2018-05-03T20:07:57.308Z,16.56
2018-05-03T20:10:24.899Z,16.56
2018-05-03T20:12:52.718Z,16.55
2018-05-03T20:15:20.708Z,16.55
2018-05-03T20:17:48.437Z,16.55
2018-05-03T20:20:17.046Z,16.55
2018-05-03T20:22:44.900Z,16.54
2018-05-03T20:25:12.779Z,16.53
2018-05-03T20:27:40.546Z,16.52
2018-05-03T20:30:08.313Z,16.52
2018-05-03T20:32:36.164Z,16.51
2018-05-03T20:35:03.989Z,16.50
2018-05-03T20:37:31.624Z,16.49
2018-05-03T20:39:59.519Z,16.48
2018-05-03T20:42:27.368Z,16.47
2018-05-03T20:44:55.205Z,16.46
2018-05-03T20:47:22.996Z,16.46
2018-05-03T20:49:50.841Z,16.43
2018-05-03T20:52:19.729Z,16.44
2018-05-03T20:54:47.554Z,16.45
2018-05-03T20:57:15.364Z,16.44
2018-05-03T20:59:44.342Z,16.42
2018-05-03T21:02:12.157Z,16.41
2018-05-03T21:04:39.993Z,16.40
2018-05-03T21:07:07.803Z,16.39
2018-05-03T21:09:35.624Z,16.34
2018-05-03T21:12:03.499Z,16.33
2018-05-03T21:14:31.247Z,16.31
2018-05-03T21:16:59.123Z,16.29
2018-05-03T21:19:26.998Z,16.29
2018-05-03T21:21:54.840Z,16.28
2018-05-03T21:24:22.657Z,16.27
2018-05-03T21:26:50.141Z,16.24
2018-05-03T21:29:17.975Z,16.18
2018-05-03T21:31:45.817Z,16.11
2018-05-03T21:34:13.669Z,16.07
2018-05-03T21:36:41.526Z,16.01
2018-05-03T21:39:09.501Z,15.98
2018-05-03T21:41:37.369Z,15.96
2018-05-03T21:44:05.203Z,15.95
2018-05-03T21:46:33.123Z,15.90
2018-05-03T21:49:00.844Z,15.86
2018-05-03T21:51:28.680Z,15.83
2018-05-03T21:53:56.551Z,15.80
2018-05-03T21:56:24.368Z,15.74
2018-05-03T21:58:52.214Z,15.71
2018-05-03T22:01:20.032Z,15.69
2018-05-03T22:03:47.864Z,15.67
2018-05-03T22:06:15.739Z,15.65
2018-05-03T22:08:43.549Z,15.62
2018-05-03T22:11:11.347Z,15.58
2018-05-03T22:13:39.163Z,15.53
2018-05-03T22:16:07.059Z,15.50
2018-05-03T22:18:34.871Z,15.46
2018-05-03T22:21:02.668Z,15.42
2018-05-03T22:23:30.433Z,15.38
2018-05-03T22:25:58.287Z,15.35
2018-05-03T22:28:26.085Z,15.30
2018-05-03T22:30:53.882Z,15.27
2018-05-03T22:33:21.591Z,15.25
2018-05-03T22:35:49.404Z,15.22
2018-05-03T22:38:17.206Z,15.21
2018-05-03T22:40:45.155Z,15.18
2018-05-03T22:43:12.937Z,15.14
2018-05-03T22:45:40.763Z,15.08
2018-05-03T22:48:10.985Z,15.04
2018-05-03T22:53:16.102Z,14.99
2018-05-03T22:55:43.973Z,14.99
2018-05-03T22:58:11.802Z,14.98
2018-05-03T23:00:39.595Z,14.91
2018-05-03T23:03:07.468Z,14.87
2018-05-03T23:05:35.955Z,14.84
2018-05-03T23:11:03.336Z,14.74
2018-05-03T23:13:31.114Z,14.74
2018-05-03T23:18:35.984Z,14.70
2018-05-03T23:21:03.797Z,14.68
2018-05-03T23:23:31.774Z,14.68
2018-05-03T23:26:10.055Z,14.67
2018-05-03T23:31:15.716Z,14.65
2018-05-03T23:33:43.543Z,14.63
2018-05-03T23:36:11.379Z,14.62
2018-05-03T23:38:48.574Z,14.63
2018-05-03T23:41:16.375Z,14.63
2018-05-03T23:43:44.193Z,14.63
2018-05-03T23:46:11.979Z,14.61
2018-05-03T23:48:49.274Z,14.61
2018-05-03T23:51:16.859Z,14.63
2018-05-03T23:53:44.805Z,14.65
2018-05-03T23:56:12.589Z,14.65
2018-05-03T23:58:49.847Z,14.64
